Terminal Aerodrome Forecast
Issued by NWS Missoula, MT

Home | Current Version | Previous Version | Text Only | Print | Product List | Glossary On
Versions: 1 2 3 4 5 6 7 8 9 10 11 12 13 14 15 16 17
860
FTUS45 KMSO 201734
TAFMSO
TAF
KMSO 201734Z 2018/2118 VRB04KT P6SM FEW150
     FM202100 36007KT P6SM BKN120
     FM210100 01006KT P6SM VCSH BKN090=

USA.gov is the U.S. government's official web portal to all federal, state and local government web resources and services.